This is the latest recevied weather packets stored in our database for station/object UA1CAS-13. If no packets are shown the sender has not sent any weather packets the latest 10 day(s).
| Time | Temp. | Humidity | Pressure | Rain* | Wind** | Luminosity | Snow |
|---|---|---|---|---|---|---|---|
| 1778076168 | 15° C | 25% | 1010 hPa | - | - | - | - |
| 1778075267 | 17.22° C | 23% | 1010 hPa | - | - | - | - |
| 1778074366 | 16.67° C | 22% | 1010 hPa | - | - | - | - |
| 1778073465 | 16.67° C | 23% | 1010 hPa | - | - | - | - |
| 1778072564 | 16.11° C | 25% | 1010 hPa | - | - | - | - |
| 1778071663 | 16.67° C | 24% | 1009 hPa | - | - | - | - |
| 1778070762 | 16.67° C | 25% | 1010 hPa | - | - | - | - |
| 1778069861 | 15.56° C | 27% | 1009 hPa | - | - | - | - |
| 1778068960 | 12.78° C | 30% | 1009 hPa | - | - | - | - |
| 1778068058 | 14.44° C | 30% | 1009 hPa | - | - | - | - |
| 1778067157 | 13.33° C | 33% | 1009 hPa | - | - | - | - |
| 1778066256 | 12.78° C | 34% | 1009 hPa | - | - | - | - |
| 1778065355 | 14.44° C | 29% | 1009 hPa | - | - | - | - |
| 1778064454 | 16.11° C | 26% | 1009 hPa | - | - | - | - |
| 1778063552 | 13.89° C | 28% | 1009 hPa | - | - | - | - |
| 1778062651 | 16.11° C | 26% | 1009 hPa | - | - | - | - |
| 1778061750 | 15.56° C | 26% | 1008 hPa | - | - | - | - |
| 1778060849 | 13.33° C | 29% | 1008 hPa | - | - | - | - |
| 1778059948 | 15° C | 24% | 1008 hPa | - | - | - | - |
| 1778059047 | 16.11° C | 25% | 1008 hPa | - | - | - | - |
| 1778058146 | 15° C | 29% | 1008 hPa | - | - | - | - |
| 1778057245 | 14.44° C | 28% | 1008 hPa | - | - | - | - |
| 1778056344 | 14.44° C | 30% | 1008 hPa | - | - | - | - |
| 1778055443 | 13.89° C | 29% | 1008 hPa | - | - | - | - |
| 1778054542 | 14.44° C | 30% | 1007 hPa | - | - | - | - |
* Rain since midnight (hover to see other rain measurements)
** Current wind speed in m/s (hover to see current wind gust speed)